Time;durP1;ratioP1;P1;durP2;ratioP2;P2;SDS_P1;SDS_P2;PMS_P1;PMS_P2;Temp;Humidity;BMP_temperature;BMP_pressure;BME280_temperature;BME280_humidity;BME280_pressure;Samples;Min_cycle;Max_cycle;Signal;HPM_P1;HPM_P2
2023/06/23 00:00:22;;;;;;;9.82;4.43;;;19.10;99.90;;;18.34;89.89;101213.44;4908043;29;20036;-78
2023/06/23 00:02:51;;;;;;;6.88;3.50;;;19.10;99.90;;;18.30;90.16;101211.94;4902980;29;20062;-78
2023/06/23 00:05:17;;;;;;;7.25;4.13;;;19.10;99.90;;;18.27;90.69;101196.16;4900082;28;20027;-79
2023/06/23 00:07:43;;;;;;;14.77;4.65;;;19.00;99.90;;;18.24;91.31;101183.91;4900908;28;20042;-77
2023/06/23 00:10:10;;;;;;;13.02;4.90;;;19.00;99.90;;;18.10;94.21;101169.84;4910981;28;20046;-79
2023/06/23 00:12:44;;;;;;;10.52;5.18;;;18.90;99.90;;;17.96;96.84;101155.69;4875998;29;20043;-78
2023/06/23 00:15:13;;;;;;;12.00;5.57;;;18.80;99.90;;;17.88;97.72;101147.38;4887147;28;20461;-79
2023/06/23 00:17:43;;;;;;;16.58;5.50;;;18.70;99.90;;;17.78;99.42;101130.34;4921488;28;20032;-79
2023/06/23 00:20:13;;;;;;;16.55;5.03;;;18.60;99.90;;;17.66;100.00;101116.06;4871654;28;20038;-79
2023/06/23 00:22:43;;;;;;;15.75;5.65;;;18.60;99.90;;;17.67;100.00;101111.59;4904949;28;20032;-78
2023/06/23 00:25:18;;;;;;;10.55;5.63;;;18.50;99.90;;;17.63;100.00;101105.63;4899953;28;20043;-80
2023/06/23 00:27:47;;;;;;;13.93;5.70;;;18.50;99.90;;;17.59;100.00;101093.50;4891431;28;20207;-78
2023/06/23 00:30:14;;;;;;;11.70;5.35;;;18.50;99.90;;;17.56;100.00;101089.25;4885221;28;20046;-79
2023/06/23 00:32:48;;;;;;;15.35;6.07;;;18.40;99.90;;;17.52;100.00;101092.25;4909525;28;20083;-78
2023/06/23 00:35:14;;;;;;;9.70;5.85;;;18.40;99.90;;;17.49;100.00;101081.78;4878518;28;20074;-78
2023/06/23 00:37:40;;;;;;;11.65;5.32;;;18.30;99.90;;;17.43;100.00;101080.41;4899545;28;20583;-78
2023/06/23 00:40:12;;;;;;;;;;;18.30;99.90;;;17.38;100.00;101082.53;4875669;28;20460;-78
2023/06/23 00:42:46;;;;;;;8.38;5.20;;;18.30;99.90;;;17.35;100.00;101080.94;4878772;29;19933;-79
2023/06/23 00:45:15;;;;;;;10.70;5.10;;;18.30;99.90;;;17.36;100.00;101087.09;4913815;28;20060;-79
2023/06/23 00:47:45;;;;;;;10.20;5.15;;;18.30;99.90;;;17.35;100.00;101083.59;4905448;28;20400;-78
2023/06/23 00:50:20;;;;;;;8.95;3.90;;;18.20;99.90;;;17.34;100.00;101084.56;4858901;28;20032;-79
2023/06/23 00:52:51;;;;;;;5.90;3.90;;;18.20;99.90;;;17.34;100.00;101081.91;4909673;28;20032;-78
2023/06/23 00:55:25;;;;;;;12.90;4.18;;;18.20;99.90;;;17.30;100.00;101088.41;4896315;28;20280;-79
2023/06/23 00:57:54;;;;;;;10.02;4.28;;;18.10;99.90;;;17.29;100.00;101078.69;4882135;28;20050;-79
2023/06/23 01:00:21;;;;;;;8.15;4.07;;;18.10;99.90;;;17.31;100.00;101054.66;4896355;28;20452;-79
2023/06/23 01:02:52;;;;;;;12.98;4.80;;;18.20;99.90;;;17.21;100.00;101033.13;4912487;28;20036;-80
2023/06/23 01:05:25;;;;;;;9.57;4.00;;;18.10;99.90;;;17.06;100.00;101007.59;4912993;28;20036;-80
2023/06/23 01:08:20;;;;;;;9.25;3.97;;;18.00;99.90;;;16.94;100.00;101002.19;4902159;28;20124;-80
2023/06/23 01:11:11;;;;;;;7.47;4.22;;;17.90;99.90;;;16.88;100.00;101023.88;4893960;28;20031;-80
2023/06/23 01:14:05;;;;;;;9.15;3.63;;;17.90;99.90;;;16.93;100.00;101045.72;4895924;28;20032;-80
2023/06/23 01:16:40;;;;;;;5.60;3.10;;;17.90;99.90;;;16.88;100.00;101069.09;4915240;28;20432;-84
2023/06/23 01:19:45;;;;;;;6.15;2.97;;;17.70;99.90;;;16.72;100.00;101066.59;4890581;28;20055;-81
2023/06/23 01:22:22;;;;;;;8.40;2.50;;;17.70;99.90;;;16.69;99.90;101072.09;4886653;28;20530;-81
2023/06/23 01:25:21;;;;;;;4.80;3.00;;;17.70;99.90;;;16.80;99.59;101068.75;4905445;28;20043;-82
2023/06/23 01:28:30;;;;;;;5.05;2.95;;;17.80;99.90;;;16.82;98.36;101077.47;4906200;28;20038;-80
2023/06/23 01:31:00;;;;;;;4.35;2.72;;;17.70;99.90;;;16.87;99.01;101080.69;4863960;28;20035;-80
2023/06/23 01:33:39;;;;;;;4.75;3.03;;;17.80;99.90;;;16.93;98.73;101084.72;4865534;28;20038;-80
2023/06/23 01:36:16;;;;;;;7.75;3.13;;;17.80;99.90;;;17.00;98.14;101094.00;4856775;28;20050;-81
2023/06/23 01:38:58;;;;;;;5.18;2.97;;;17.80;99.90;;;16.99;98.47;101101.13;4884214;28;20116;-81
2023/06/23 01:41:33;;;;;;;6.15;3.10;;;17.90;99.90;;;17.06;97.95;101119.34;4880267;28;20119;-80
2023/06/23 01:44:14;;;;;;;5.63;3.28;;;17.90;99.90;;;17.09;97.92;101135.09;4883085;28;20050;-80
2023/06/23 01:46:44;;;;;;;4.18;3.13;;;17.90;99.90;;;17.14;97.56;101140.97;4871327;28;20055;-80
2023/06/23 01:49:17;;;;;;;8.73;3.38;;;18.00;99.90;;;17.15;98.05;101148.84;4893282;28;20099;-80
2023/06/23 01:51:48;;;;;;;8.85;3.90;;;18.00;99.90;;;17.14;98.53;101160.44;4887471;28;20512;-79
2023/06/23 01:54:19;;;;;;;6.28;3.40;;;17.90;99.90;;;17.11;98.63;101165.97;4878991;28;20043;-80
2023/06/23 01:56:47;;;;;;;5.03;3.75;;;17.90;99.90;;;17.08;99.21;101162.66;4912800;28;20040;-79
2023/06/23 01:59:14;;;;;;;7.57;3.10;;;17.90;99.90;;;17.08;99.42;101163.50;4886205;28;20952;-80
2023/06/23 02:01:43;;;;;;;7.13;3.90;;;17.90;99.90;;;17.09;99.57;101162.56;4868996;29;20050;-80
2023/06/23 02:04:14;;;;;;;8.52;3.53;;;17.90;99.90;;;17.08;99.90;101167.97;4877283;28;20043;-80
2023/06/23 02:06:44;;;;;;;4.38;3.25;;;17.90;99.90;;;17.07;99.74;101160.97;4857609;28;20114;-80
2023/06/23 02:09:24;;;;;;;8.25;3.70;;;17.90;99.90;;;17.09;99.38;101157.22;4867202;28;20043;-80
2023/06/23 02:11:57;;;;;;;7.53;3.38;;;17.90;99.90;;;17.09;99.31;101159.91;4914403;28;20042;-80
2023/06/23 02:14:25;;;;;;;9.70;3.08;;;17.90;99.90;;;17.12;99.22;101159.69;4911092;28;20103;-80
2023/06/23 02:16:53;;;;;;;7.03;3.03;;;17.90;99.90;;;17.15;99.70;101158.66;4853876;28;20086;-79
2023/06/23 02:19:24;;;;;;;7.13;3.40;;;18.00;99.90;;;17.17;99.39;101167.34;4871986;28;20051;-79
2023/06/23 02:21:51;;;;;;;10.07;4.00;;;17.90;99.90;;;17.18;99.53;101158.44;4897271;28;20054;-79
2023/06/23 02:24:18;;;;;;;12.15;4.10;;;17.90;99.90;;;17.16;100.00;101152.34;4873251;28;20050;-80
2023/06/23 02:26:47;;;;;;;15.75;4.63;;;17.90;99.90;;;17.10;100.00;101150.94;4868145;28;20056;-79
2023/06/23 02:29:15;;;;;;;8.02;3.70;;;17.90;99.90;;;17.07;100.00;101145.00;4864711;28;20047;-79
2023/06/23 02:31:41;;;;;;;7.97;3.90;;;17.80;99.90;;;17.02;100.00;101142.66;4897502;28;20039;-79
2023/06/23 02:34:08;;;;;;;10.05;3.88;;;17.80;99.90;;;16.95;100.00;101142.22;4871363;28;20055;-79
2023/06/23 02:36:51;;;;;;;12.60;4.05;;;17.80;99.90;;;16.88;100.00;101145.38;4885617;28;20043;-79
2023/06/23 02:39:28;;;;;;;10.15;3.47;;;17.70;99.90;;;16.78;100.00;101145.06;4884342;28;20483;-78
2023/06/23 02:41:56;;;;;;;11.85;3.85;;;17.60;99.90;;;16.73;100.00;101142.72;4882489;28;20437;-79
2023/06/23 02:44:36;;;;;;;6.18;3.40;;;17.60;99.90;;;16.68;100.00;101138.69;4908514;28;20564;-79
2023/06/23 02:47:07;;;;;;;5.65;2.88;;;17.60;99.90;;;16.70;100.00;101148.25;4877320;28;20047;-78
2023/06/23 02:49:37;;;;;;;7.15;3.42;;;17.60;99.90;;;16.68;100.00;101146.66;4901464;28;20094;-79
2023/06/23 02:52:10;;;;;;;6.80;3.40;;;17.60;99.90;;;16.68;100.00;101155.47;4916601;28;20520;-78
2023/06/23 02:54:46;;;;;;;9.93;3.10;;;17.60;99.90;;;16.66;100.00;101153.88;4907436;28;20102;-78
2023/06/23 02:57:15;;;;;;;5.75;3.60;;;17.60;99.90;;;16.68;100.00;101151.97;4897871;28;20115;-78
2023/06/23 02:59:44;;;;;;;8.07;3.35;;;17.50;99.90;;;16.63;100.00;101148.75;4877345;28;20044;-79
2023/06/23 03:02:16;;;;;;;11.48;3.20;;;17.50;99.90;;;16.59;100.00;101138.31;4875301;28;20035;-78
2023/06/23 03:04:46;;;;;;;4.85;2.83;;;17.50;99.90;;;16.58;100.00;101141.91;4882401;28;20038;-77
2023/06/23 03:07:12;;;;;;;8.75;2.97;;;17.40;99.90;;;16.61;100.00;101140.91;4887446;28;20038;-78
2023/06/23 03:09:38;;;;;;;5.13;3.22;;;17.50;99.90;;;16.65;100.00;101142.41;4894648;28;20051;-78
2023/06/23 03:12:04;;;;;;;7.72;3.17;;;17.50;99.90;;;16.68;100.00;101134.22;4865211;28;20036;-78
2023/06/23 03:14:37;;;;;;;10.70;3.35;;;17.60;99.90;;;16.73;100.00;101147.19;4891465;28;20050;-78
2023/06/23 03:17:16;;;;;;;9.20;2.92;;;17.60;99.90;;;16.72;100.00;101142.84;4902782;28;20036;-78
2023/06/23 03:19:55;;;;;;;8.07;3.60;;;17.60;99.90;;;16.70;100.00;101139.44;4906280;28;20450;-78
2023/06/23 03:22:39;;;;;;;11.43;3.33;;;17.60;99.90;;;16.75;100.00;101145.28;4895823;28;20051;-78
2023/06/23 03:25:16;;;;;;;6.75;3.53;;;17.60;99.90;;;16.75;100.00;101143.47;4901224;28;20039;-78
2023/06/23 03:27:44;;;;;;;7.05;3.10;;;17.60;99.90;;;16.70;100.00;101140.28;4893319;28;20398;-78
2023/06/23 03:30:20;;;;;;;7.05;3.75;;;17.60;99.90;;;16.68;100.00;101146.66;4914090;28;20106;-78
2023/06/23 03:32:53;;;;;;;4.82;3.20;;;17.60;99.90;;;16.71;100.00;101141.97;4860781;28;20170;-79
2023/06/23 03:35:25;;;;;;;8.35;3.20;;;17.60;99.90;;;16.70;100.00;101137.63;4891796;28;21433;-79
2023/06/23 03:37:59;;;;;;;7.30;3.40;;;17.50;99.90;;;16.69;100.00;101135.91;4896401;28;20053;-78
2023/06/23 03:40:29;;;;;;;8.60;3.13;;;17.50;99.90;;;16.61;100.00;101136.41;4904494;28;20052;-78
2023/06/23 03:43:05;;;;;;;9.32;3.65;;;17.50;99.90;;;16.61;100.00;101138.22;4920048;28;20470;-78
2023/06/23 03:45:34;;;;;;;10.82;3.40;;;17.70;99.90;;;16.60;100.00;101142.66;4866531;28;20036;-79
2023/06/23 03:48:05;;;;;;;7.95;3.40;;;17.50;99.90;;;16.58;100.00;101144.59;4896567;28;20045;-79
2023/06/23 03:50:36;;;;;;;6.68;3.38;;;17.50;99.90;;;16.61;100.00;101144.41;4907906;28;20123;-79
2023/06/23 03:53:03;;;;;;;9.13;3.33;;;17.50;99.90;;;16.54;100.00;101145.75;4904423;28;20032;-79
2023/06/23 03:55:33;;;;;;;7.00;2.92;;;17.50;99.90;;;16.57;100.00;101144.69;4883319;28;20085;-79
2023/06/23 03:58:06;;;;;;;7.32;3.10;;;17.50;99.90;;;16.62;100.00;101145.25;4907164;28;20574;-78
2023/06/23 04:00:35;;;;;;;8.10;2.92;;;17.50;99.90;;;16.61;100.00;101148.88;4892756;28;20035;-79
2023/06/23 04:03:08;;;;;;;10.55;3.60;;;17.50;99.90;;;16.65;100.00;101154.81;4909068;28;20052;-79
2023/06/23 04:05:39;;;;;;;12.40;3.50;;;17.40;99.90;;;16.56;100.00;101157.13;4883230;28;20042;-78
2023/06/23 04:08:10;;;;;;;13.73;3.75;;;17.40;99.90;;;16.58;100.00;101149.91;4876291;28;20035;-77
2023/06/23 04:10:38;;;;;;;12.35;4.00;;;17.50;99.90;;;16.61;100.00;101146.22;4869582;28;20474;-78
2023/06/23 04:13:05;;;;;;;8.13;4.10;;;17.50;99.90;;;16.62;100.00;101158.53;4904209;28;20501;-78
2023/06/23 04:15:34;;;;;;;6.13;3.80;;;17.50;99.90;;;16.59;100.00;101154.28;4886127;28;20047;-77
2023/06/23 04:18:05;;;;;;;15.95;4.22;;;17.50;99.90;;;16.58;100.00;101149.06;4898587;28;21411;-77
2023/06/23 04:20:32;;;;;;;13.63;4.20;;;17.40;99.90;;;16.55;100.00;101152.78;4899653;28;20040;-77
2023/06/23 04:22:59;;;;;;;14.38;4.75;;;17.40;99.90;;;16.54;100.00;101153.72;4898848;28;20410;-77
2023/06/23 04:25:26;;;;;;;15.18;4.90;;;17.40;99.90;;;16.53;100.00;101148.50;4904185;28;20059;-77
2023/06/23 04:27:58;;;;;;;12.57;4.97;;;17.40;99.90;;;16.52;100.00;101149.44;4883064;28;20086;-77
2023/06/23 04:30:27;;;;;;;16.90;5.15;;;17.40;99.90;;;16.53;100.00;101160.00;4900766;29;20040;-76
2023/06/23 04:32:53;;;;;;;22.90;6.18;;;17.50;99.90;;;16.58;100.00;101171.16;4904406;29;20115;-76
2023/06/23 04:35:24;;;;;;;17.77;5.22;;;17.50;99.90;;;16.61;100.00;101172.78;4900000;29;20039;-77
2023/06/23 04:38:04;;;;;;;13.73;4.82;;;17.50;99.90;;;16.63;100.00;101173.56;4920315;28;20035;-78
2023/06/23 04:40:38;;;;;;;12.23;5.18;;;17.50;99.90;;;16.65;100.00;101176.97;4899439;28;20032;-77
2023/06/23 04:43:31;;;;;;;15.90;6.20;;;17.50;99.90;;;16.70;100.00;101171.34;4877641;28;20119;-78
2023/06/23 04:46:20;;;;;;;13.40;4.70;;;17.60;99.90;;;16.69;100.00;101174.94;4876899;28;20130;-79
2023/06/23 04:49:12;;;;;;;14.88;5.55;;;17.50;99.90;;;16.68;100.00;101179.41;4912509;28;20047;-77
2023/06/23 04:51:48;;;;;;;12.00;4.75;;;17.60;99.90;;;16.70;100.00;101180.16;4874163;29;20134;-77
2023/06/23 04:54:38;;;;;;;9.75;4.35;;;17.60;99.90;;;16.77;100.00;101185.94;4897358;28;20107;-77
2023/06/23 04:57:09;;;;;;;10.52;5.38;;;17.70;99.90;;;16.80;100.00;101183.09;4899198;28;20032;-77
2023/06/23 04:59:39;;;;;;;12.70;4.97;;;17.70;99.90;;;16.92;100.00;101186.78;4890426;28;20047;-78
2023/06/23 05:02:08;;;;;;;9.90;4.70;;;17.80;99.90;;;17.01;100.00;101184.34;4900522;28;20059;-77
2023/06/23 05:04:36;;;;;;;9.80;5.15;;;17.80;99.90;;;17.07;100.00;101187.56;4896093;28;20537;-77
2023/06/23 05:07:08;;;;;;;14.70;6.10;;;17.90;99.90;;;17.18;100.00;101179.72;4905810;28;20071;-79
2023/06/23 05:09:35;;;;;;;12.25;5.55;;;18.00;99.90;;;17.28;100.00;101180.81;4875410;28;20095;-77
2023/06/23 05:12:03;;;;;;;10.60;5.63;;;18.10;99.90;;;17.37;100.00;101185.50;4902801;28;20047;-78
2023/06/23 05:14:38;;;;;;;15.57;5.93;;;18.20;99.90;;;17.41;100.00;101180.81;4891398;29;21325;-77
2023/06/23 05:17:07;;;;;;;9.07;5.30;;;18.20;99.90;;;17.43;100.00;101179.75;4899508;28;20031;-78
2023/06/23 05:19:40;;;;;;;11.80;5.60;;;18.30;99.90;;;17.57;100.00;101199.25;4892653;28;20044;-78
2023/06/23 05:22:10;;;;;;;16.90;5.43;;;18.40;99.90;;;17.62;100.00;101194.44;4906031;28;20055;-78
2023/06/23 05:24:45;;;;;;;15.55;5.45;;;18.40;99.90;;;17.64;100.00;101195.19;4916040;28;20237;-77
2023/06/23 05:27:13;;;;;;;8.38;4.45;;;18.40;99.90;;;17.61;100.00;101193.63;4903294;28;20075;-77
2023/06/23 05:29:44;;;;;;;12.77;4.32;;;18.50;99.90;;;17.66;100.00;101198.63;4875857;28;20028;-78
2023/06/23 05:32:14;;;;;;;8.40;4.50;;;18.50;99.90;;;17.67;100.00;101203.00;4897946;28;20035;-81
2023/06/23 05:34:44;;;;;;;9.48;4.45;;;18.50;99.90;;;17.74;100.00;101208.75;4867182;29;20126;-82
2023/06/23 05:37:34;;;;;;;8.77;4.40;;;18.60;99.90;;;17.85;100.00;101202.72;4848123;28;20113;-83
2023/06/23 05:40:05;;;;;;;13.05;4.78;;;18.60;99.90;;;17.88;100.00;101208.66;4884348;28;20119;-80
2023/06/23 05:42:36;;;;;;;15.35;5.35;;;18.70;99.90;;;17.94;100.00;101204.72;4889622;29;20130;-79
2023/06/23 05:45:03;;;;;;;12.77;5.78;;;18.70;99.90;;;17.92;100.00;101191.50;4895284;28;20036;-79
2023/06/23 05:47:45;;;;;;;11.05;5.70;;;18.70;99.90;;;17.88;100.00;101190.00;4926317;28;20032;-79
2023/06/23 05:50:37;;;;;;;9.10;5.55;;;18.70;99.90;;;17.84;100.00;101183.22;4896147;28;20495;-78
2023/06/23 05:53:13;;;;;;;10.23;6.00;;;18.70;99.90;;;17.76;100.00;101182.88;4906729;28;20201;-80
2023/06/23 05:55:55;;;;;;;10.23;5.22;;;18.60;99.90;;;17.70;100.00;101176.16;4908810;28;20031;-79
2023/06/23 05:58:25;;;;;;;12.77;5.80;;;18.60;99.90;;;17.69;100.00;101186.88;4884555;28;20096;-80
2023/06/23 06:01:04;;;;;;;18.05;5.35;;;18.50;99.90;;;17.59;100.00;101178.69;4909225;28;20591;-79
2023/06/23 06:03:45;;;;;;;9.45;5.53;;;18.50;99.90;;;17.69;100.00;101179.78;4869080;29;20769;-80
2023/06/23 06:06:11;;;;;;;11.02;5.10;;;18.50;99.90;;;17.68;100.00;101186.03;4870926;28;20064;-80
2023/06/23 06:08:44;;;;;;;9.05;5.10;;;18.50;99.90;;;17.62;100.00;101183.81;4896659;28;20024;-81
2023/06/23 06:11:12;;;;;;;9.63;5.18;;;18.50;99.90;;;17.68;100.00;101187.88;4883541;28;20044;-82
2023/06/23 06:13:44;;;;;;;9.65;5.32;;;18.50;99.90;;;17.69;100.00;101190.44;4880098;28;20032;-82
2023/06/23 06:16:14;;;;;;;8.98;4.70;;;18.50;99.90;;;17.71;100.00;101209.81;4840210;28;20033;-82
2023/06/23 06:18:41;;;;;;;8.45;4.35;;;18.60;99.90;;;17.74;99.77;101211.41;4878995;28;20040;-83
2023/06/23 06:21:08;;;;;;;10.32;4.35;;;18.60;99.90;;;17.75;98.38;101213.97;4883892;28;20039;-83
2023/06/23 06:26:37;;;;;;;7.45;4.25;;;18.70;99.90;;;17.95;94.75;101236.59;4886701;28;20037;-83
2023/06/23 06:29:06;;;;;;;7.03;3.90;;;18.80;99.90;;;18.16;93.38;101247.56;4859766;29;20123;-83
2023/06/23 06:31:39;;;;;;;6.95;3.88;;;18.80;99.90;;;18.15;91.26;101251.19;4866370;28;20075;-84
2023/06/23 06:34:07;;;;;;;8.43;3.72;;;18.90;99.90;;;18.25;91.15;101267.41;4847745;28;20055;-84
2023/06/23 06:36:45;;;;;;;7.82;3.55;;;;;;;18.40;91.06;101260.97;4867929;28;20221;-84
2023/06/23 06:39:11;;;;;;;7.32;3.60;;;19.10;99.90;;;18.45;90.69;101253.50;4872888;29;20056;-83
2023/06/23 06:41:56;;;;;;;12.20;3.92;;;;;;;18.49;89.84;101259.47;4824582;28;20047;-84
2023/06/23 06:44:33;;;;;;;5.93;3.35;;;;;;;18.59;89.41;101260.50;4848159;29;20070;-83
2023/06/23 06:47:01;;;;;;;6.07;3.47;;;19.30;99.90;;;18.64;90.16;101253.03;4874150;28;20173;-84
2023/06/23 06:49:35;;;;;;;6.20;3.45;;;19.40;99.90;;;18.76;89.66;101253.94;4855135;29;20037;-84
2023/06/23 06:52:03;;;;;;;5.93;3.60;;;19.40;99.90;;;18.83;89.53;101246.38;4869637;28;20042;-83
2023/06/23 06:54:29;;;;;;;9.32;4.05;;;19.50;99.90;;;18.99;88.71;101254.97;4887245;28;20044;-84
2023/06/23 06:57:00;;;;;;;5.07;3.45;;;19.70;99.90;;;19.16;87.89;101261.72;4884510;28;20087;-82
2023/06/23 06:59:26;;;;;;;5.05;3.42;;;19.70;99.90;;;19.11;86.43;101258.53;4865999;28;20039;-82
2023/06/23 07:01:53;;;;;;;4.07;3.60;;;19.80;99.90;;;19.21;86.40;101266.72;4886837;28;20039;-81
2023/06/23 07:04:20;;;;;;;6.85;3.88;;;19.90;99.90;;;19.26;87.49;101269.88;4881248;28;20024;-82
2023/06/23 07:06:52;;;;;;;8.38;3.97;;;19.90;99.90;;;19.30;87.36;101276.72;4899654;28;20047;-82
2023/06/23 07:09:19;;;;;;;10.80;4.32;;;20.00;99.90;;;19.37;87.29;101283.31;4901370;28;20094;-82
2023/06/23 07:11:48;;;;;;;10.23;4.13;;;20.00;99.90;;;19.36;87.51;101299.44;4875272;28;20502;-81
2023/06/23 07:14:22;;;;;;;9.35;4.78;;;20.00;99.90;;;19.37;88.08;101302.00;4897186;28;20031;-81
2023/06/23 07:16:47;;;;;;;7.68;4.68;;;20.00;99.90;;;19.21;88.37;101304.09;4890770;28;20044;-81
2023/06/23 07:19:13;;;;;;;7.03;4.53;;;20.00;99.90;;;19.29;89.22;101308.84;4895814;28;20127;-80
2023/06/23 07:21:39;;;;;;;;;;;20.00;99.90;;;19.19;88.55;101306.88;4877532;28;20044;-82
2023/06/23 07:24:05;;;;;;;6.70;4.50;;;20.00;99.90;;;19.21;88.44;101312.09;4904850;28;19918;-80
2023/06/23 07:26:37;;;;;;;10.38;4.75;;;20.00;99.90;;;19.31;88.32;101304.25;4847820;28;20088;-81
2023/06/23 07:29:03;;;;;;;9.45;5.20;;;20.10;99.90;;;19.40;87.45;101301.75;4895523;28;20039;-80
2023/06/23 07:31:30;;;;;;;8.77;5.05;;;20.10;99.90;;;19.46;87.64;101306.66;4897259;28;20043;-81
2023/06/23 07:33:56;;;;;;;10.20;5.32;;;20.20;99.90;;;19.64;87.30;101298.22;4886550;28;20047;-80
2023/06/23 07:36:32;;;;;;;9.15;5.07;;;20.30;99.90;;;19.78;87.05;101297.19;4888229;28;20036;-80
2023/06/23 07:38:57;;;;;;;11.27;4.97;;;20.40;99.90;;;19.75;86.65;101295.59;4904549;28;20044;-79
2023/06/23 07:41:23;;;;;;;11.90;5.32;;;20.50;99.90;;;20.03;87.11;101297.00;4883644;28;20134;-80
2023/06/23 07:43:49;;;;;;;12.60;5.00;;;20.70;99.90;;;20.17;87.46;101303.09;4872751;28;20044;-79
2023/06/23 07:46:20;;;;;;;9.07;4.68;;;20.80;99.90;;;20.25;85.78;101301.53;4868469;28;20101;-80
2023/06/23 07:48:45;;;;;;;7.70;4.50;;;20.90;99.90;;;20.52;85.29;101304.81;4898067;28;20036;-79
2023/06/23 07:51:11;;;;;;;10.13;4.97;;;21.10;99.90;;;20.65;85.39;101303.75;4896801;28;20046;-80
2023/06/23 07:53:37;;;;;;;7.15;4.55;;;21.20;99.90;;;20.72;84.62;101295.25;4901958;28;20538;-79
2023/06/23 07:56:03;;;;;;;;;;;21.20;99.90;;;20.87;83.46;101300.19;4907807;28;20031;-79
2023/06/23 07:58:29;;;;;;;10.60;5.15;;;21.40;99.90;;;20.82;81.28;101290.81;4894884;28;19922;-79
2023/06/23 08:00:57;;;;;;;;;;;21.50;99.90;;;20.81;81.36;101299.84;4886649;29;20118;-79
2023/06/23 08:03:23;;;;;;;12.38;4.95;;;21.60;99.90;;;21.05;82.15;101305.88;4912528;28;19927;-79
2023/06/23 08:05:48;;;;;;;10.38;4.75;;;21.70;99.90;;;21.19;80.36;101311.94;4898112;28;20054;-79
2023/06/23 08:08:14;;;;;;;10.95;5.00;;;21.90;99.90;;;21.56;79.88;101319.63;4913351;28;20036;-79
2023/06/23 08:10:40;;;;;;;6.70;4.97;;;22.00;99.90;;;21.50;78.09;101311.09;4912347;28;20051;-79
2023/06/23 08:13:06;;;;;;;;;;;22.10;99.90;;;21.73;78.40;101318.19;4924783;28;20115;-79
2023/06/23 08:15:31;;;;;;;11.93;5.13;;;22.30;99.90;;;21.97;77.76;101323.31;4901609;28;19942;-79
2023/06/23 08:17:57;;;;;;;9.80;4.68;;;22.40;99.90;;;22.08;77.44;101317.88;4911227;28;20123;-79
2023/06/23 08:20:23;;;;;;;;;;;22.50;99.90;;;21.71;75.80;101311.16;4894380;29;20390;-79
2023/06/23 08:22:51;;;;;;;13.57;5.85;;;22.40;99.90;;;21.72;76.80;101311.97;4878270;28;20367;-79
2023/06/23 08:25:17;;;;;;;9.48;5.28;;;22.40;99.90;;;21.84;76.33;101312.78;4902330;28;20036;-79
2023/06/23 08:27:43;;;;;;;8.27;4.72;;;22.40;99.90;;;21.80;76.16;101311.34;4883967;28;20036;-79
2023/06/23 08:30:09;;;;;;;11.52;5.13;;;22.50;99.90;;;22.15;76.17;101313.69;4916396;23;20060;-79
2023/06/23 08:32:35;;;;;;;10.88;4.82;;;22.60;99.90;;;21.90;75.32;101318.47;4958852;28;20066;-78
2023/06/23 08:35:01;;;;;;;5.65;4.35;;;22.50;99.90;;;21.96;75.48;101327.81;4943890;28;20228;-79
2023/06/23 08:37:31;;;;;;;11.25;4.55;;;22.50;99.90;;;21.96;75.08;101325.13;4951289;28;20559;-78
2023/06/23 08:39:57;;;;;;;15.70;4.82;;;22.60;99.90;;;22.15;75.15;101343.19;4952319;28;20039;-78
2023/06/23 08:42:24;;;;;;;8.38;4.55;;;22.70;99.90;;;22.04;73.29;101333.38;4920773;28;20118;-80
2023/06/23 08:44:52;;;;;;;8.95;4.20;;;22.70;99.90;;;22.21;73.84;101334.63;4960442;28;20454;-79
2023/06/23 08:47:25;;;;;;;8.15;4.35;;;22.70;99.90;;;22.07;72.59;101348.34;4936318;28;20697;-79
2023/06/23 08:49:51;;;;;;;8.43;4.28;;;22.80;99.90;;;22.34;73.54;101347.00;4944388;28;20038;-80
2023/06/23 08:52:17;;;;;;;9.07;4.85;;;23.00;99.90;;;22.61;73.28;101341.03;4937962;28;20038;-78
2023/06/23 08:54:43;;;;;;;8.05;4.63;;;23.10;99.90;;;22.63;72.75;101341.75;4928469;28;20527;-79
2023/06/23 08:57:09;;;;;;;9.57;4.78;;;23.20;99.90;;;22.82;72.77;101341.00;4924655;28;20073;-78
2023/06/23 08:59:35;;;;;;;8.25;4.53;;;23.20;99.90;;;22.68;71.25;101340.38;4931474;28;20076;-78
2023/06/23 09:02:04;;;;;;;11.00;4.25;;;23.40;99.90;;;23.00;72.93;101352.81;4946868;28;20033;-78
2023/06/23 09:04:30;;;;;;;9.32;4.13;;;23.40;99.90;;;22.81;70.47;101361.63;4941331;28;20036;-78
2023/06/23 09:06:56;;;;;;;8.35;4.53;;;23.30;99.90;;;22.61;69.98;101366.03;4934851;28;20142;-77
2023/06/23 09:09:22;;;;;;;6.82;4.07;;;23.40;99.90;;;22.92;71.03;101383.00;4968429;28;20123;-79
2023/06/23 09:11:48;;;;;;;10.10;4.95;;;23.50;99.90;;;23.00;70.41;101381.47;4931918;23;20043;-78
2023/06/23 09:14:20;;;;;;;9.18;4.13;;;23.60;99.90;;;23.17;70.19;101377.31;4943532;28;20043;-79
2023/06/23 09:16:46;;;;;;;10.52;4.70;;;23.60;99.90;;;23.06;69.17;101375.56;4917587;28;20042;-78
2023/06/23 09:19:15;;;;;;;7.43;4.55;;;23.60;99.90;;;23.19;70.38;101375.31;4946088;28;20052;-79
2023/06/23 09:21:54;;;;;;;8.68;4.20;;;23.70;99.90;;;23.32;68.84;101366.00;4939335;28;20051;-78
2023/06/23 09:24:22;;;;;;;9.73;4.20;;;23.80;99.90;;;23.50;67.52;101363.50;4929108;28;20601;-78
2023/06/23 09:26:52;;;;;;;7.43;4.28;;;24.00;99.90;;;23.78;66.81;101369.06;4930291;28;20515;-78
2023/06/23 09:29:24;;;;;;;7.47;4.53;;;24.20;99.90;;;24.01;65.88;101366.91;4946294;28;20031;-78
2023/06/23 09:31:55;;;;;;;10.32;4.45;;;24.50;99.90;;;24.13;65.13;101378.38;4946949;23;20094;-79
2023/06/23 09:34:27;;;;;;;6.82;4.00;;;24.60;99.90;;;24.15;64.44;101377.22;4940506;28;20528;-79
2023/06/23 09:37:14;;;;;;;5.57;3.72;;;24.70;99.90;;;24.33;63.09;101385.41;4925724;28;20055;-78
2023/06/23 09:39:48;;;;;;;8.95;3.80;;;24.80;99.90;;;24.61;64.59;101390.88;4950019;28;20538;-78
2023/06/23 09:42:19;;;;;;;5.53;3.97;;;24.90;99.90;;;24.51;64.69;101390.94;4901253;28;20039;-79
2023/06/23 09:44:59;;;;;;;9.07;4.22;;;24.60;99.90;;;23.84;65.25;101381.91;4898930;28;20043;-77
2023/06/23 09:47:29;;;;;;;8.55;4.05;;;24.70;99.90;;;24.16;65.43;101391.53;4910037;28;20175;-77
2023/06/23 09:49:55;;;;;;;10.35;4.15;;;24.70;99.90;;;24.24;64.70;101396.19;4912816;28;20095;-78
2023/06/23 09:52:33;;;;;;;6.75;3.70;;;24.60;99.90;;;23.98;63.93;101383.34;4912537;28;20040;-78
2023/06/23 09:55:08;;;;;;;7.43;4.30;;;24.50;99.90;;;23.77;64.03;101394.25;4922693;28;20385;-80
2023/06/23 09:57:35;;;;;;;8.68;4.38;;;24.40;99.90;;;23.88;64.69;101391.41;4911887;28;20036;-80
2023/06/23 10:00:08;;;;;;;10.93;4.30;;;24.50;99.90;;;23.98;64.11;101393.25;4911739;28;20072;-80
2023/06/23 10:02:41;;;;;;;5.55;3.58;;;24.50;99.90;;;24.06;63.26;101396.94;4906072;29;20043;-80
2023/06/23 10:05:17;;;;;;;5.60;3.53;;;24.50;99.90;;;23.99;63.13;101414.59;4921847;29;20039;-79
2023/06/23 10:07:48;;;;;;;12.68;4.00;;;24.60;99.90;;;24.06;63.15;101406.81;4919071;28;20035;-79
2023/06/23 10:10:18;;;;;;;7.95;4.07;;;24.60;99.90;;;24.22;63.42;101415.16;4906172;28;20383;-78
2023/06/23 10:12:47;;;;;;;8.90;4.03;;;24.60;99.90;;;24.16;62.65;101407.66;4887173;29;20062;-79
2023/06/23 10:15:14;;;;;;;5.45;3.30;;;24.60;99.90;;;24.10;63.51;101405.53;4883002;29;20126;-79
2023/06/23 10:17:48;;;;;;;6.55;3.92;;;24.70;99.90;;;24.38;62.57;101417.25;4908397;29;20040;-79
2023/06/23 10:20:33;;;;;;;5.60;3.53;;;24.80;99.90;;;24.58;62.85;101420.81;4897930;29;20035;-81
2023/06/23 10:23:01;;;;;;;11.80;4.07;;;24.90;99.90;;;24.49;62.39;101424.34;4905134;28;20060;-81
2023/06/23 10:25:38;;;;;;;11.27;4.18;;;25.00;99.90;;;24.60;62.41;101424.19;4925184;29;20056;-81
2023/06/23 10:28:17;;;;;;;8.95;3.90;;;25.10;99.90;;;24.81;61.73;101421.25;4933500;29;20031;-82
2023/06/23 10:30:55;;;;;;;5.95;3.30;;;25.10;99.90;;;24.62;58.08;101419.50;4890500;23;20051;-81